^^
Saratoga-Weather Station Historical Data
Daily Summary for July 17, 2021 Units:  English    Metric   Both
Daily Weekly Monthly Yearly Custom
  High: Low: Average:
Temperature: 63.9 °F 59.5 °F 62.2 °F
Dew Point: 59 °F 56.7 °F 58.1 °F
Humidity: 91% 84% 86%
Wind Speed: 5mph 0mph 1mph
Wind Gust: 6mph - -
Wind- - SW
Pressure: 30.2 in 30.2 in -
Precipitation: 0 in    
Historical Graphs
 
 
Tabular Data for July 17, 2021
Time Temperature Dew Point Pressure Wind Wind Speed Wind Gust Humidity Rainfall Rate (Hourly) solar
00:03 63.9 °F 59 °F 30.2 in Calm   3 mph 84% 0 in 0 W/m2
00:08 63.7 °F 58.8 °F 30.2 in NE 2 mph 2 mph 84% 0 in 0 W/m2
00:13 63.7 °F 58.8 °F 30.2 in Calm   3 mph 84% 0 in 0 W/m2
00:19 63.7 °F 58.8 °F 30.2 in Calm   2 mph 84% 0 in 0 W/m2
00:24 63.7 °F 58.8 °F 30.2 in NNW 2.9 mph 4 mph 84% 0 in 0 W/m2
00:29 63.7 °F 58.8 °F 30.2 in Calm   6 mph 84% 0 in 0 W/m2
00:34 63.7 °F 58.8 °F 30.2 in NW 2 mph 3 mph 84% 0 in 0 W/m2
00:39 63.5 °F 58.6 °F 30.2 in Calm   6 mph 84% 0 in 0 W/m2
00:44 63.5 °F 58.6 °F 30.2 in Calm   2 mph 84% 0 in 0 W/m2
00:49 63.5 °F 58.6 °F 30.2 in Calm   4 mph 84% 0 in 0 W/m2
00:54 63.5 °F 58.6 °F 30.2 in Calm   2 mph 84% 0 in 0 W/m2
00:59 63.3 °F 58.8 °F 30.2 in WNW 2 mph 6 mph 85% 0 in 0 W/m2
01:04 63.3 °F 58.8 °F 30.2 in East 0.9 mph 2 mph 85% 0 in 0 W/m2
01:09 63.3 °F 58.8 °F 30.2 in NNW 0.9 mph 5 mph 85% 0 in 0 W/m2
01:14 63.3 °F 58.8 °F 30.2 in Calm   2 mph 85% 0 in 0 W/m2
01:19 63.3 °F 58.8 °F 30.2 in NE 0.9 mph 4 mph 85% 0 in 0 W/m2
01:24 63.3 °F 58.8 °F 30.2 in WNW 4 mph 5 mph 85% 0 in 0 W/m2
01:29 63.1 °F 58.6 °F 30.2 in NNW 2 mph 4 mph 85% 0 in 0 W/m2
01:34 63.1 °F 58.6 °F 30.2 in NNW 5 mph 5 mph 85% 0 in 0 W/m2
01:39 63.1 °F 58.6 °F 30.2 in NNE 2 mph 5 mph 85% 0 in 0 W/m2
01:44 63.1 °F 58.6 °F 30.2 in North 0.9 mph 4 mph 85% 0 in 0 W/m2
01:49 63 °F 58.5 °F 30.2 in Calm   5 mph 85% 0 in 0 W/m2
01:54 63 °F 58.5 °F 30.2 in ENE 0.9 mph 2 mph 85% 0 in 0 W/m2
01:59 63 °F 58.5 °F 30.2 in Calm   5 mph 85% 0 in 0 W/m2
02:04 63 °F 58.6 °F 30.2 in Calm   4 mph 86% 0 in 0 W/m2
02:09 62.8 °F 58.5 °F 30.2 in North 0.9 mph 3 mph 86% 0 in 0 W/m2
02:14 62.8 °F 58.5 °F 30.2 in ENE 0.9 mph 3 mph 86% 0 in 0 W/m2
02:19 62.8 °F 58.5 °F 30.2 in NNW 0.9 mph 6 mph 86% 0 in 0 W/m2
02:24 62.8 °F 58.5 °F 30.2 in NNW 2.9 mph 5 mph 86% 0 in 0 W/m2
02:29 62.8 °F 58.5 °F 30.2 in Calm   3 mph 86% 0 in 0 W/m2
02:34 62.8 °F 58.5 °F 30.2 in Calm   2 mph 86% 0 in 0 W/m2
02:39 62.6 °F 58.3 °F 30.2 in Calm   3 mph 86% 0 in 0 W/m2
02:44 62.6 °F 58.3 °F 30.2 in Calm   2 mph 86% 0 in 0 W/m2
02:49 62.6 °F 58.3 °F 30.2 in West 0.9 mph 2 mph 86% 0 in 0 W/m2
02:54 62.4 °F 58.1 °F 30.2 in SW 0.9 mph 1 mph 86% 0 in 0 W/m2
02:59 62.4 °F 58.1 °F 30.2 in West 2 mph 5 mph 86% 0 in 0 W/m2
03:04 62.2 °F 57.9 °F 30.2 in West 2 mph 3 mph 86% 0 in 0 W/m2
03:09 62.2 °F 57.9 °F 30.2 in West 0.9 mph 5 mph 86% 0 in 0 W/m2
03:14 62.2 °F 58.3 °F 30.2 in Calm   3 mph 87% 0 in 0 W/m2
03:19 62.1 °F 58.1 °F 30.2 in West 2 mph 4 mph 87% 0 in 0 W/m2
03:24 62.1 °F 58.1 °F 30.2 in Calm   3 mph 87% 0 in 0 W/m2
03:29 61.9 °F 57.9 °F 30.2 in Calm   1 mph 87% 0 in 0 W/m2
03:34 61.9 °F 57.9 °F 30.2 in North 2.9 mph 5 mph 87% 0 in 0 W/m2
03:39 61.7 °F 57.7 °F 30.2 in WNW 4 mph 5 mph 87% 0 in 0 W/m2
03:44 61.5 °F 57.6 °F 30.2 in WNW 2 mph 3 mph 87% 0 in 0 W/m2
03:49 61.5 °F 57.6 °F 30.2 in NW 2 mph 5 mph 87% 0 in 0 W/m2
03:54 61.5 °F 57.6 °F 30.2 in NW 2 mph 3 mph 87% 0 in 0 W/m2
03:59 61.3 °F 57.7 °F 30.2 in Calm   4 mph 88% 0 in 0 W/m2
04:04 61.3 °F 57.4 °F 30.2 in West 2 mph 3 mph 87% 0 in 0 W/m2
04:09 61.2 °F 57.6 °F 30.2 in WNW 2 mph 6 mph 88% 0 in 0 W/m2
04:14 61.2 °F 57.6 °F 30.2 in Calm   2 mph 88% 0 in 0 W/m2
04:19 61 °F 57.4 °F 30.2 in Calm   3 mph 88% 0 in 0 W/m2
04:24 60.8 °F 57.2 °F 30.2 in Calm   2 mph 88% 0 in 0 W/m2
04:29 60.6 °F 57 °F 30.2 in Calm   3 mph 88% 0 in 0 W/m2
04:34 60.4 °F 57.2 °F 30.2 in WNW 0.9 mph 2 mph 89% 0 in 0 W/m2
04:39 60.3 °F 57 °F 30.2 in Calm     89% 0 in 0 W/m2
04:44 60.1 °F 56.8 °F 30.2 in WNW 0.9 mph 2 mph 89% 0 in 0 W/m2
04:49 59.9 °F 57 °F 30.2 in Calm   1 mph 90% 0 in 0 W/m2
04:54 59.7 °F 56.8 °F 30.2 in Calm   1 mph 90% 0 in 0 W/m2
04:59 59.5 °F 56.7 °F 30.2 in West 0.9 mph 1 mph 90% 0 in 0 W/m2
05:04 59.5 °F 56.8 °F 30.2 in SW 0.9 mph 2 mph 91% 0 in 0 W/m2
05:09 59.5 °F 56.8 °F 30.2 in WNW 0.9 mph 2 mph 91% 0 in 0 W/m2
Juneau County Weather
Compliments of Weather Underground - 4 mb